Time;durP1;ratioP1;P1;durP2;ratioP2;P2;SDS_P1;SDS_P2;PMS_P1;PMS_P2;Temp;Humidity;BMP_temperature;BMP_pressure;BME280_temperature;BME280_humidity;BME280_pressure;Samples;Min_cycle;Max_cycle;Signal;HPM_P1;HPM_P2
2022/05/17 00:01:57;;;;;;;16.98;10.90;;;;;;;;;;5030563;28;20037;-59
2022/05/17 00:04:23;;;;;;;16.08;10.70;;;;;;;;;;5023139;28;20521;-59
2022/05/17 00:06:49;;;;;;;18.33;11.50;;;;;;;;;;5028758;28;20496;-59
2022/05/17 00:09:17;;;;;;;17.05;11.35;;;;;;;;;;5025368;28;20077;-60
2022/05/17 00:11:47;;;;;;;20.88;11.27;;;;;;;;;;5025470;28;20500;-59
2022/05/17 00:14:14;;;;;;;18.77;11.43;;;;;;;;;;5035862;28;20102;-59
2022/05/17 00:16:40;;;;;;;16.63;11.50;;;;;;;;;;5013084;28;20045;-59
2022/05/17 00:19:06;;;;;;;17.92;11.60;;;;;;;;;;5029430;28;20033;-59
2022/05/17 00:21:33;;;;;;;16.35;10.55;;;;;;;;;;5014284;28;20068;-59
2022/05/17 00:23:58;;;;;;;16.55;11.18;;;;;;;;;;5031347;28;20741;-59
2022/05/17 00:26:25;;;;;;;17.60;11.65;;;;;;;;;;5030106;28;20109;-60
2022/05/17 00:28:51;;;;;;;16.15;10.45;;;;;;;;;;5022435;28;20128;-59
2022/05/17 00:31:17;;;;;;;18.65;11.30;;;;;;;;;;5029419;28;20124;-60
2022/05/17 00:33:43;;;;;;;18.27;11.75;;;;;;;;;;5032172;28;20156;-59
2022/05/17 00:36:09;;;;;;;17.20;11.25;;;;;;;;;;5031373;28;20052;-59
2022/05/17 00:38:35;;;;;;;13.95;9.88;;;;;;;;;;5031128;28;20053;-59
2022/05/17 00:41:02;;;;;;;18.17;11.50;;;;;;;;;;5029622;28;20029;-59
2022/05/17 00:43:28;;;;;;;21.67;11.27;;;;;;;;;;5024071;28;20072;-59
2022/05/17 00:45:55;;;;;;;13.98;9.85;;;;;;;;;;5022784;28;20565;-59
2022/05/17 00:48:21;;;;;;;16.95;11.65;;;;;;;;;;5028968;28;20041;-59
2022/05/17 00:50:48;;;;;;;15.18;8.80;;;;;;;;;;5032107;28;20095;-59
2022/05/17 00:53:17;;;;;;;17.90;10.20;;;;;;;;;;5027877;28;20052;-59
2022/05/17 00:55:46;;;;;;;16.08;10.18;;;;;;;;;;5030952;28;20034;-59
2022/05/17 00:58:27;;;;;;;14.15;9.80;;;;;;;;;;5031493;28;20041;-59
2022/05/17 01:00:53;;;;;;;18.00;9.98;;;;;;;;;;5031342;28;20041;-59
2022/05/17 01:03:21;;;;;;;14.63;8.73;;;;;;;;;;5029787;28;20272;-59
2022/05/17 01:05:49;;;;;;;17.10;9.55;;;;;;;;;;5026544;28;20043;-59
2022/05/17 01:08:16;;;;;;;19.08;9.57;;;;;;;;;;5030317;28;20037;-59
2022/05/17 01:10:42;;;;;;;14.30;9.90;;;;;;;;;;5029850;28;20053;-59
2022/05/17 01:15:53;;;;;;;15.93;8.50;;;;;;;;;;5028914;28;20041;-60
2022/05/17 01:18:19;;;;;;;16.60;9.63;;;;;;;;;;5030850;28;20045;-59
2022/05/17 01:20:46;;;;;;;14.75;9.00;;;;;;;;;;5011879;28;20048;-59
2022/05/17 01:23:12;;;;;;;12.15;8.55;;;;;;;;;;5014120;28;20041;-59
2022/05/17 01:25:40;;;;;;;13.05;8.20;;;;;;;;;;5030132;28;20063;-59
2022/05/17 01:28:12;;;;;;;12.65;8.30;;;;;;;;;;5030257;28;20092;-59
2022/05/17 01:30:39;;;;;;;12.07;8.52;;;;;;;;;;5028611;28;20273;-60
2022/05/17 01:33:05;;;;;;;14.88;8.40;;;;;;;;;;5030997;28;20095;-59
2022/05/17 01:35:32;;;;;;;13.68;8.60;;;;;;;;;;5008867;28;20400;-60
2022/05/17 01:38:00;;;;;;;13.15;8.73;;;;;;;;;;5025500;28;20049;-59
2022/05/17 01:40:26;;;;;;;14.10;8.77;;;;;;;;;;5027286;28;20041;-59
2022/05/17 01:42:53;;;;;;;15.50;8.90;;;;;;;;;;5030449;28;20399;-59
2022/05/17 01:45:19;;;;;;;17.30;8.77;;;;;;;;;;5028023;28;20052;-59
2022/05/17 01:47:45;;;;;;;19.48;8.70;;;;;;;;;;5031525;28;20377;-59
2022/05/17 01:50:11;;;;;;;18.17;8.85;;;;;;;;;;5011602;28;20041;-59
2022/05/17 01:52:37;;;;;;;18.83;8.43;;;;;;;;;;5030467;28;20037;-59
2022/05/17 01:55:03;;;;;;;16.00;8.77;;;;;;;;;;5027577;28;20399;-60
2022/05/17 01:57:29;;;;;;;15.23;8.13;;;;;;;;;;5028624;28;20045;-59
2022/05/17 01:59:55;;;;;;;14.30;8.57;;;;;;;;;;5025428;28;20172;-59
2022/05/17 02:02:21;;;;;;;17.60;8.35;;;;;;;;;;5029422;28;20042;-59
2022/05/17 02:04:47;;;;;;;18.42;7.93;;;;;;;;;;5028031;28;20487;-60
2022/05/17 02:07:13;;;;;;;13.30;7.80;;;;;;;;;;5029465;28;20034;-59
2022/05/17 02:09:39;;;;;;;18.10;9.10;;;;;;;;;;5026104;28;20132;-60
2022/05/17 02:12:05;;;;;;;18.33;8.63;;;;;;;;;;5025602;28;20041;-59
2022/05/17 02:14:31;;;;;;;19.05;8.20;;;;;;;;;;5029425;28;20052;-60
2022/05/17 02:16:59;;;;;;;12.73;7.72;;;;;;;;;;5031547;28;20132;-60
2022/05/17 02:19:25;;;;;;;18.52;8.45;;;;;;;;;;5029714;28;20041;-60
2022/05/17 02:21:51;;;;;;;17.33;8.63;;;;;;;;;;5028320;28;20394;-60
2022/05/17 02:24:17;;;;;;;16.75;8.75;;;;;;;;;;5029635;28;20037;-59
2022/05/17 02:26:43;;;;;;;16.63;8.95;;;;;;;;;;5028920;28;20454;-59
2022/05/17 02:29:09;;;;;;;18.20;8.88;;;;;;;;;;5027956;28;20041;-59
2022/05/17 02:31:35;;;;;;;19.15;9.50;;;;;;;;;;5029543;28;20072;-59
2022/05/17 02:34:01;;;;;;;19.33;9.02;;;;;;;;;;5029038;28;20038;-59
2022/05/17 02:36:29;;;;;;;20.80;9.07;;;;;;;;;;5025770;28;20038;-59
2022/05/17 02:38:55;;;;;;;16.58;8.27;;;;;;;;;;5028781;28;20037;-59
2022/05/17 02:41:23;;;;;;;21.77;8.80;;;;;;;;;;5028646;28;20095;-59
2022/05/17 02:43:50;;;;;;;19.23;8.82;;;;;;;;;;5030499;28;20045;-59
2022/05/17 02:46:16;;;;;;;16.48;8.52;;;;;;;;;;5027254;28;20037;-59
2022/05/17 02:48:43;;;;;;;16.30;8.73;;;;;;;;;;5030921;28;20033;-59
2022/05/17 02:51:16;;;;;;;16.42;9.27;;;;;;;;;;5028826;28;20133;-59
2022/05/17 02:53:42;;;;;;;17.63;8.65;;;;;;;;;;5028115;28;20087;-59
2022/05/17 02:56:08;;;;;;;20.08;8.68;;;;;;;;;;5028554;28;20042;-59
2022/05/17 02:58:34;;;;;;;16.90;9.18;;;;;;;;;;5027641;28;20497;-59
2022/05/17 03:01:01;;;;;;;17.88;8.85;;;;;;;;;;5026866;28;20168;-60
2022/05/17 03:03:27;;;;;;;17.80;8.88;;;;;;;;;;5029200;28;20411;-60
2022/05/17 03:05:53;;;;;;;15.32;7.78;;;;;;;;;;5028155;28;20048;-59
2022/05/17 03:10:48;;;;;;;15.02;9.05;;;;;;;;;;5007962;28;20095;-62
2022/05/17 03:13:14;;;;;;;15.20;8.35;;;;;;;;;;5014804;28;20499;-61
2022/05/17 03:15:41;;;;;;;18.58;8.93;;;;;;;;;;5020398;28;20408;-61
2022/05/17 03:18:07;;;;;;;17.00;9.18;;;;;;;;;;5008964;28;20046;-61
2022/05/17 03:20:33;;;;;;;17.25;9.15;;;;;;;;;;5016878;28;20045;-62
2022/05/17 03:22:59;;;;;;;16.30;8.65;;;;;;;;;;5022743;28;20033;-62
2022/05/17 03:25:25;;;;;;;23.30;9.35;;;;;;;;;;5013000;28;20041;-61
2022/05/17 03:27:51;;;;;;;16.98;9.18;;;;;;;;;;5016782;28;20091;-62
2022/05/17 03:30:17;;;;;;;18.13;9.63;;;;;;;;;;5025980;28;20045;-61
2022/05/17 03:32:43;;;;;;;19.35;9.98;;;;;;;;;;5014622;28;20045;-62
2022/05/17 03:35:10;;;;;;;15.93;8.80;;;;;;;;;;5024928;28;20515;-62
2022/05/17 03:37:36;;;;;;;19.35;8.55;;;;;;;;;;5022444;28;20045;-62
2022/05/17 03:40:04;;;;;;;19.77;8.95;;;;;;;;;;5016497;28;20061;-61
2022/05/17 03:42:30;;;;;;;19.30;8.00;;;;;;;;;;5020546;28;20459;-61
2022/05/17 03:44:56;;;;;;;16.42;8.63;;;;;;;;;;5022468;28;20057;-61
2022/05/17 03:47:22;;;;;;;17.85;9.23;;;;;;;;;;5016479;28;20042;-62
2022/05/17 03:49:48;;;;;;;17.38;8.60;;;;;;;;;;5015487;28;20080;-62
2022/05/17 03:52:14;;;;;;;18.10;8.48;;;;;;;;;;5013040;28;20477;-62
2022/05/17 03:54:40;;;;;;;18.48;8.52;;;;;;;;;;5022063;28;20336;-61
2022/05/17 03:57:06;;;;;;;19.70;8.57;;;;;;;;;;5014100;28;20033;-62
2022/05/17 03:59:32;;;;;;;14.57;8.63;;;;;;;;;;5013519;28;20041;-61
2022/05/17 04:01:59;;;;;;;16.80;8.75;;;;;;;;;;5010592;28;20030;-62
2022/05/17 04:04:25;;;;;;;20.70;8.32;;;;;;;;;;5019131;28;20495;-61
2022/05/17 04:06:51;;;;;;;20.08;8.73;;;;;;;;;;5018861;28;20041;-61
2022/05/17 04:09:17;;;;;;;17.75;8.40;;;;;;;;;;5010211;28;20037;-61
2022/05/17 04:11:43;;;;;;;21.27;9.20;;;;;;;;;;5024038;28;20135;-61
2022/05/17 04:14:09;;;;;;;18.05;8.43;;;;;;;;;;5015392;28;20451;-61
2022/05/17 04:16:36;;;;;;;17.30;7.93;;;;;;;;;;5018770;28;20026;-61
2022/05/17 04:19:02;;;;;;;20.50;8.57;;;;;;;;;;5011524;28;20109;-62
2022/05/17 04:21:30;;;;;;;22.08;8.65;;;;;;;;;;5024637;28;20037;-61
2022/05/17 04:23:56;;;;;;;18.52;8.73;;;;;;;;;;5011269;28;20628;-61
2022/05/17 04:26:23;;;;;;;18.10;8.63;;;;;;;;;;5019671;28;20045;-61
2022/05/17 04:28:49;;;;;;;16.25;8.45;;;;;;;;;;5013899;28;20464;-61
2022/05/17 04:31:15;;;;;;;20.80;8.38;;;;;;;;;;5020652;28;20068;-61
2022/05/17 04:33:42;;;;;;;17.58;8.57;;;;;;;;;;5010327;28;20049;-61
2022/05/17 04:36:08;;;;;;;20.50;8.60;;;;;;;;;;5028490;28;20037;-61
2022/05/17 04:38:34;;;;;;;17.90;8.25;;;;;;;;;;5025021;28;20170;-61
2022/05/17 04:41:00;;;;;;;18.63;8.80;;;;;;;;;;5016986;28;20084;-61
2022/05/17 04:43:26;;;;;;;17.80;8.00;;;;;;;;;;5012177;28;20053;-61
2022/05/17 04:45:54;;;;;;;20.77;8.45;;;;;;;;;;5011433;28;20038;-61
2022/05/17 04:48:20;;;;;;;15.80;8.02;;;;;;;;;;5009539;28;20052;-61
2022/05/17 04:50:46;;;;;;;19.35;8.52;;;;;;;;;;5012385;28;20038;-61
2022/05/17 04:53:12;;;;;;;20.02;8.63;;;;;;;;;;5014069;28;20420;-61
2022/05/17 04:55:38;;;;;;;15.63;8.00;;;;;;;;;;5026156;28;20095;-61
2022/05/17 04:58:04;;;;;;;15.27;8.00;;;;;;;;;;5008600;28;20420;-61
2022/05/17 05:00:30;;;;;;;17.02;8.65;;;;;;;;;;5019356;28;20069;-61
2022/05/17 05:02:56;;;;;;;17.00;8.07;;;;;;;;;;5020209;28;20066;-61
2022/05/17 05:05:23;;;;;;;18.08;8.00;;;;;;;;;;5009903;28;20059;-61
2022/05/17 05:07:49;;;;;;;18.35;8.13;;;;;;;;;;5009009;28;20045;-61
2022/05/17 05:10:15;;;;;;;17.70;8.23;;;;;;;;;;5023210;28;20048;-61
2022/05/17 05:12:41;;;;;;;17.77;8.20;;;;;;;;;;5020724;28;20526;-61
2022/05/17 05:15:09;;;;;;;16.75;7.85;;;;;;;;;;5022388;28;20045;-61
2022/05/17 05:17:36;;;;;;;17.88;7.93;;;;;;;;;;5014951;28;20041;-61
2022/05/17 05:20:03;;;;;;;19.70;7.90;;;;;;;;;;5028208;28;20120;-61
2022/05/17 05:22:33;;;;;;;15.93;7.63;;;;;;;;;;4992010;28;20448;-61
2022/05/17 05:24:59;;;;;;;17.35;7.93;;;;;;;;;;4999192;28;20099;-61
2022/05/17 05:27:25;;;;;;;18.05;7.90;;;;;;;;;;5010050;28;20520;-61
2022/05/17 05:29:51;;;;;;;17.65;7.70;;;;;;;;;;5016823;28;20038;-61
2022/05/17 05:32:17;;;;;;;15.45;8.20;;;;;;;;;;5031262;28;20083;-62
2022/05/17 05:34:43;;;;;;;19.45;8.05;;;;;;;;;;5016878;28;20172;-61
2022/05/17 05:37:09;;;;;;;16.58;7.90;;;;;;;;;;5027896;28;20034;-61
2022/05/17 05:39:35;;;;;;;15.90;7.85;;;;;;;;;;5013425;28;20037;-61
2022/05/17 05:42:01;;;;;;;16.50;8.20;;;;;;;;;;5016940;28;20036;-61
2022/05/17 05:44:27;;;;;;;14.93;7.82;;;;;;;;;;5019628;28;20044;-61
2022/05/17 05:46:53;;;;;;;16.40;8.07;;;;;;;;;;5020045;28;20050;-61
2022/05/17 05:49:19;;;;;;;17.05;7.43;;;;;;;;;;5007095;28;20077;-61
2022/05/17 05:51:46;;;;;;;17.70;7.95;;;;;;;;;;5010855;28;20431;-61
2022/05/17 05:54:12;;;;;;;19.77;8.50;;;;;;;;;;5004725;28;20117;-61
2022/05/17 05:56:38;;;;;;;15.95;8.18;;;;;;;;;;5014524;28;20124;-61
2022/05/17 05:59:04;;;;;;;14.60;7.50;;;;;;;;;;5017028;28;20070;-62
2022/05/17 06:01:30;;;;;;;14.20;7.38;;;;;;;;;;5019815;28;20038;-61
2022/05/17 06:03:56;;;;;;;18.00;8.23;;;;;;;;;;5021078;28;20549;-61
2022/05/17 06:06:22;;;;;;;18.52;8.05;;;;;;;;;;5021533;28;20099;-61
2022/05/17 06:08:48;;;;;;;19.88;8.93;;;;;;;;;;5012051;28;20072;-61
2022/05/17 06:11:15;;;;;;;16.60;7.47;;;;;;;;;;5013708;28;20053;-62
2022/05/17 06:13:41;;;;;;;15.95;7.03;;;;;;;;;;5018031;28;20119;-61
2022/05/17 06:16:08;;;;;;;17.02;7.82;;;;;;;;;;5018917;28;20464;-62
2022/05/17 06:18:34;;;;;;;15.10;7.13;;;;;;;;;;5005250;28;20041;-61
2022/05/17 06:21:02;;;;;;;18.02;7.63;;;;;;;;;;5010518;28;20065;-61
2022/05/17 06:23:28;;;;;;;18.13;7.82;;;;;;;;;;5013396;28;20034;-61
2022/05/17 06:25:54;;;;;;;20.30;8.32;;;;;;;;;;5017473;28;20121;-61
2022/05/17 06:28:20;;;;;;;14.80;7.70;;;;;;;;;;5014609;28;20121;-61
2022/05/17 06:30:46;;;;;;;16.17;7.07;;;;;;;;;;5027922;28;20112;-61
2022/05/17 06:33:13;;;;;;;17.58;7.53;;;;;;;;;;5020113;28;20033;-61
2022/05/17 06:35:39;;;;;;;17.02;7.65;;;;;;;;;;5008287;28;20076;-61
2022/05/17 06:38:06;;;;;;;18.15;7.80;;;;;;;;;;5002485;28;20041;-62
2022/05/17 06:40:32;;;;;;;13.15;7.15;;;;;;;;;;5009512;28;20113;-61
2022/05/17 06:42:59;;;;;;;17.42;7.28;;;;;;;;;;5012266;28;20042;-62
2022/05/17 06:45:25;;;;;;;14.60;6.20;;;;;;;;;;5034783;28;20049;-61
2022/05/17 06:47:51;;;;;;;19.58;6.57;;;;;;;;;;5013685;28;20038;-62
2022/05/17 06:50:17;;;;;;;17.83;6.45;;;;;;;;;;5014044;28;20117;-61
2022/05/17 06:52:44;;;;;;;12.95;6.32;;;;;;;;;;5011939;28;20384;-62
2022/05/17 06:55:10;;;;;;;16.00;6.57;;;;;;;;;;5009249;28;20236;-61
2022/05/17 06:57:37;;;;;;;15.40;5.93;;;;;;;;;;5009919;28;20158;-61
2022/05/17 07:00:05;;;;;;;13.13;5.97;;;;;;;;;;5012258;28;20466;-61
2022/05/17 07:02:31;;;;;;;16.75;6.35;;;;;;;;;;5011839;28;20374;-62
2022/05/17 07:04:58;;;;;;;12.80;6.22;;;;;;;;;;5022316;28;20409;-62
2022/05/17 07:07:24;;;;;;;14.45;6.15;;;;;;;;;;5015031;28;20046;-61
2022/05/17 07:15:20;;;;;;;13.73;5.25;;;;;;;;;;5005530;28;20078;-61
2022/05/17 07:17:47;;;;;;;14.43;5.80;;;;;;;;;;5016998;28;20449;-61
2022/05/17 07:20:13;;;;;;;16.48;5.82;;;;;;;;;;5016158;28;20512;-61
2022/05/17 07:22:39;;;;;;;15.30;5.93;;;;;;;;;;5004261;28;20261;-62
2022/05/17 07:25:06;;;;;;;12.02;5.38;;;;;;;;;;5010508;28;20045;-61
2022/05/17 07:27:32;;;;;;;12.38;5.47;;;;;;;;;;5019712;28;20103;-61
2022/05/17 07:29:57;;;;;;;16.08;6.03;;;;;;;;;;5011402;28;20399;-62
2022/05/17 07:32:23;;;;;;;16.35;5.97;;;;;;;;;;5007656;28;20041;-61
2022/05/17 07:34:49;;;;;;;16.05;6.13;;;;;;;;;;5006952;28;20049;-62
2022/05/17 07:37:16;;;;;;;11.25;4.95;;;;;;;;;;5011860;28;20121;-61
2022/05/17 07:39:42;;;;;;;12.65;5.20;;;;;;;;;;5008166;28;20037;-61
2022/05/17 07:42:09;;;;;;;14.45;5.40;;;;;;;;;;5009736;28;20551;-61
2022/05/17 07:44:35;;;;;;;14.35;5.78;;;;;;;;;;5012547;28;20044;-62
2022/05/17 07:47:01;;;;;;;13.65;6.10;;;;;;;;;;5009711;28;20050;-61
2022/05/17 07:49:27;;;;;;;14.80;6.07;;;;;;;;;;5018598;28;20052;-62
2022/05/17 07:51:54;;;;;;;9.90;5.10;;;;;;;;;;5012354;28;20037;-62
2022/05/17 07:54:20;;;;;;;14.82;6.18;;;;;;;;;;5010648;28;20184;-61
2022/05/17 07:56:46;;;;;;;11.70;5.90;;;;;;;;;;5014488;28;20069;-62
2022/05/17 07:59:12;;;;;;;21.23;6.55;;;;;;;;;;5007955;28;20075;-62
2022/05/17 08:01:38;;;;;;;13.23;5.90;;;;;;;;;;5009246;28;20045;-61
2022/05/17 08:04:04;;;;;;;14.07;6.15;;;;;;;;;;5006920;28;20400;-62
2022/05/17 08:06:30;;;;;;;13.52;6.10;;;;;;;;;;5017158;28;20561;-62
2022/05/17 08:08:56;;;;;;;14.25;6.07;;;;;;;;;;5032733;28;20407;-62
2022/05/17 08:11:24;;;;;;;12.65;5.80;;;;;;;;;;5016958;28;20115;-61
2022/05/17 08:13:50;;;;;;;14.63;6.80;;;;;;;;;;5011388;28;20038;-61
2022/05/17 08:16:16;;;;;;;13.80;5.68;;;;;;;;;;5013324;28;20073;-62
2022/05/17 08:18:43;;;;;;;13.40;5.47;;;;;;;;;;5008756;28;20038;-62
2022/05/17 08:21:09;;;;;;;11.65;6.18;;;;;;;;;;5009231;28;20058;-62
2022/05/17 08:23:35;;;;;;;15.25;5.63;;;;;;;;;;5007976;28;20101;-62
2022/05/17 08:28:47;;;;;;;14.85;5.30;;;;;;;;;;5007036;28;20042;-61
2022/05/17 08:31:13;;;;;;;12.27;5.55;;;;;;;;;;5015634;28;20104;-61
2022/05/17 08:33:39;;;;;;;12.50;5.50;;;;;;;;;;5025639;28;20381;-61
2022/05/17 08:36:06;;;;;;;8.77;4.40;;;;;;;;;;5013561;28;20088;-61
2022/05/17 08:38:35;;;;;;;10.60;4.43;;;;;;;;;;4990760;28;20045;-61
2022/05/17 08:41:01;;;;;;;9.52;4.10;;;;;;;;;;5016174;28;20048;-62
2022/05/17 08:43:38;;;;;;;9.98;4.50;;;;;;;;;;5013262;28;20030;-61
2022/05/17 08:46:04;;;;;;;13.77;4.68;;;;;;;;;;5012614;28;20411;-61
2022/05/17 08:48:48;;;;;;;11.05;5.28;;;;;;;;;;5010506;28;20105;-61
2022/05/17 08:51:15;;;;;;;14.90;6.28;;;;;;;;;;5022418;28;20057;-61
2022/05/17 08:53:41;;;;;;;11.30;4.75;;;;;;;;;;5017967;28;20045;-61
2022/05/17 08:56:09;;;;;;;10.30;5.25;;;;;;;;;;5011654;28;20048;-62
2022/05/17 08:58:36;;;;;;;14.73;4.90;;;;;;;;;;5009122;28;20132;-61
2022/05/17 09:01:07;;;;;;;13.15;4.68;;;;;;;;;;5009276;28;20065;-62
2022/05/17 09:03:33;;;;;;;12.82;4.97;;;;;;;;;;5007346;28;20049;-61
2022/05/17 09:06:25;;;;;;;10.18;4.30;;;;;;;;;;5024295;28;20037;-61
2022/05/17 09:09:10;;;;;;;10.73;4.80;;;;;;;;;;4988294;28;20132;-61
2022/05/17 09:11:39;;;;;;;11.18;4.55;;;;;;;;;;5020893;22;20046;-61
2022/05/17 09:14:12;;;;;;;12.10;4.82;;;;;;;;;;5007733;28;20477;-61
2022/05/17 09:16:42;;;;;;;10.70;4.00;;;;;;;;;;5008395;28;20033;-61
2022/05/17 09:19:08;;;;;;;11.47;4.37;;;;;;;;;;5010219;28;20117;-61
2022/05/17 09:21:34;;;;;;;10.07;3.55;;;;;;;;;;5007271;28;20574;-61
2022/05/17 09:24:03;;;;;;;8.23;3.47;;;;;;;;;;4988714;28;20066;-60
2022/05/17 09:26:30;;;;;;;11.70;3.83;;;;;;;;;;4985547;28;20030;-61
2022/05/17 09:28:59;;;;;;;10.40;3.40;;;;;;;;;;4991582;28;20074;-61
2022/05/17 09:31:28;;;;;;;10.68;3.78;;;;;;;;;;4990916;28;20124;-60
2022/05/17 09:33:55;;;;;;;7.90;3.10;;;;;;;;;;4990946;28;20065;-61
2022/05/17 09:36:23;;;;;;;9.52;3.20;;;;;;;;;;4988464;28;20065;-60
2022/05/17 09:38:51;;;;;;;8.68;3.00;;;;;;;;;;4982222;28;20042;-61
2022/05/17 09:41:19;;;;;;;13.48;3.42;;;;;;;;;;4989219;28;20503;-61
2022/05/17 09:43:52;;;;;;;7.60;3.03;;;;;;;;;;4986197;28;20518;-60
2022/05/17 09:46:28;;;;;;;10.63;2.78;;;;;;;;;;4990956;28;20049;-61
2022/05/17 09:54:39;;;;;;;12.38;2.70;;;;;;;;;;4988852;28;20424;-61
2022/05/17 09:57:16;;;;;;;8.95;2.42;;;;;;;;;;4990659;28;20084;-61
2022/05/17 09:59:42;;;;;;;11.75;2.45;;;;;;;;;;4987909;28;20034;-61
2022/05/17 10:02:34;;;;;;;8.85;3.03;;;;;;;;;;4991745;28;20121;-61
2022/05/17 10:05:20;;;;;;;9.38;2.17;;;;;;;;;;4989308;28;20142;-61
2022/05/17 10:07:51;;;;;;;6.32;2.17;;;;;;;;;;4980936;28;20057;-61
2022/05/17 10:10:35;;;;;;;7.88;2.38;;;;;;;;;;4986063;28;20034;-61
2022/05/17 10:13:19;;;;;;;9.40;2.50;;;;;;;;;;4989677;28;20042;-61
2022/05/17 10:15:47;;;;;;;8.60;2.30;;;;;;;;;;4982291;28;20094;-61
2022/05/17 10:18:35;;;;;;;8.05;2.67;;;;;;;;;;4992570;28;20423;-61
2022/05/17 10:21:19;;;;;;;7.95;2.05;;;;;;;;;;4995235;28;20050;-61
2022/05/17 10:23:50;;;;;;;9.40;2.10;;;;;;;;;;4995491;28;20078;-61
2022/05/17 10:26:17;;;;;;;7.88;2.30;;;;;;;;;;4989871;28;20050;-61
2022/05/17 10:28:49;;;;;;;8.52;2.38;;;;;;;;;;4988401;28;20034;-61
2022/05/17 10:31:20;;;;;;;11.48;2.40;;;;;;;;;;4991485;28;20038;-62
2022/05/17 10:33:49;;;;;;;8.95;1.83;;;;;;;;;;4992317;28;20158;-61
2022/05/17 10:36:19;;;;;;;7.45;2.10;;;;;;;;;;4994330;28;20047;-61
2022/05/17 10:38:55;;;;;;;6.90;2.03;;;;;;;;;;4994507;28;20038;-61
2022/05/17 10:41:24;;;;;;;8.00;2.08;;;;;;;;;;4991071;28;20049;-60
2022/05/17 10:43:50;;;;;;;8.20;2.53;;;;;;;;;;4995211;28;20048;-61
2022/05/17 10:46:30;;;;;;;12.88;2.65;;;;;;;;;;4992607;28;20390;-61
2022/05/17 10:48:58;;;;;;;6.40;2.17;;;;;;;;;;4994078;28;20121;-60
2022/05/17 10:51:50;;;;;;;9.82;2.85;;;;;;;;;;4991228;28;20074;-60
2022/05/17 10:54:35;;;;;;;8.10;2.08;;;;;;;;;;4987168;28;20039;-60
2022/05/17 10:57:04;;;;;;;10.38;2.45;;;;;;;;;;4990403;28;20100;-60
2022/05/17 10:59:49;;;;;;;9.23;2.40;;;;;;;;;;4986187;28;20446;-61
2022/05/17 11:02:15;;;;;;;6.03;2.40;;;;;;;;;;4993165;28;20030;-61
2022/05/17 11:04:59;;;;;;;9.50;2.45;;;;;;;;;;4993165;28;20485;-61
2022/05/17 11:07:37;;;;;;;9.40;2.70;;;;;;;;;;4994158;28;20046;-61
2022/05/17 11:10:19;;;;;;;13.57;2.83;;;;;;;;;;4994256;28;20515;-61
2022/05/17 11:12:48;;;;;;;10.43;3.20;;;;;;;;;;4988498;28;20465;-61
2022/05/17 11:15:23;;;;;;;11.73;3.40;;;;;;;;;;4992054;28;20050;-61
2022/05/17 11:17:54;;;;;;;11.20;3.25;;;;;;;;;;4994753;28;20378;-61
2022/05/17 11:20:29;;;;;;;9.65;2.97;;;;;;;;;;4991693;28;20129;-62
2022/05/17 11:22:58;;;;;;;8.27;3.33;;;;;;;;;;4993596;28;20093;-62
2022/05/17 11:25:28;;;;;;;14.18;3.55;;;;;;;;;;4992615;28;20042;-61
2022/05/17 11:27:54;;;;;;;10.75;3.63;;;;;;;;;;4990898;28;20057;-61
2022/05/17 11:30:28;;;;;;;10.68;3.40;;;;;;;;;;4989713;28;20073;-61
2022/05/17 11:33:07;;;;;;;10.15;3.35;;;;;;;;;;4992682;28;20045;-61
2022/05/17 11:35:33;;;;;;;11.55;3.75;;;;;;;;;;4993116;28;20035;-61
2022/05/17 11:37:59;;;;;;;12.13;4.35;;;;;;;;;;4984187;28;20038;-61
2022/05/17 11:40:43;;;;;;;13.02;4.22;;;;;;;;;;4992577;28;20049;-61
2022/05/17 11:45:56;;;;;;;12.65;4.47;;;;;;;;;;4993192;28;20102;-61
2022/05/17 11:48:23;;;;;;;10.38;4.25;;;;;;;;;;4987516;28;20046;-61
2022/05/17 11:50:52;;;;;;;14.07;4.80;;;;;;;;;;4993729;28;20038;-61
2022/05/17 11:53:24;;;;;;;11.55;4.30;;;;;;;;;;4993449;28;20038;-61
2022/05/17 11:56:09;;;;;;;14.77;5.70;;;;;;;;;;4987357;28;20186;-61
2022/05/17 11:58:35;;;;;;;11.63;4.97;;;;;;;;;;4993780;28;20108;-62
2022/05/17 12:01:01;;;;;;;17.02;5.35;;;;;;;;;;4991888;28;20073;-61
2022/05/17 12:03:46;;;;;;;14.95;5.68;;;;;;;;;;4993330;28;20049;-61
2022/05/17 12:06:28;;;;;;;14.65;6.20;;;;;;;;;;4991453;28;20069;-62
2022/05/17 12:08:54;;;;;;;12.63;4.80;;;;;;;;;;4986887;28;20034;-62
2022/05/17 12:11:27;;;;;;;14.73;5.18;;;;;;;;;;4991697;28;20265;-62
2022/05/17 12:14:13;;;;;;;11.60;4.88;;;;;;;;;;4989388;28;20133;-61
2022/05/17 12:16:45;;;;;;;12.23;4.88;;;;;;;;;;4986519;28;20049;-61
2022/05/17 12:19:32;;;;;;;12.48;5.35;;;;;;;;;;4990699;28;20042;-62
2022/05/17 12:22:00;;;;;;;11.77;4.95;;;;;;;;;;4980768;28;20042;-62
2022/05/17 12:24:33;;;;;;;11.38;4.85;;;;;;;;;;4983782;28;20042;-61
2022/05/17 12:27:16;;;;;;;9.98;3.85;;;;;;;;;;4987994;28;20508;-62
2022/05/17 12:32:35;;;;;;;10.85;4.70;;;;;;;;;;4989657;28;20485;-62
2022/05/17 12:35:04;;;;;;;7.50;3.85;;;;;;;;;;4989946;28;20564;-61
2022/05/17 12:37:31;;;;;;;10.23;4.40;;;;;;;;;;4987332;28;20039;-62
2022/05/17 12:45:28;;;;;;;12.57;5.22;;;;;;;;;;4984074;28;20125;-62
2022/05/17 12:47:55;;;;;;;12.88;5.50;;;;;;;;;;4990897;28;20045;-61
2022/05/17 12:50:41;;;;;;;10.88;5.18;;;;;;;;;;4992193;28;20507;-62
2022/05/17 12:53:17;;;;;;;16.55;5.72;;;;;;;;;;4988081;28;20435;-61
2022/05/17 12:55:56;;;;;;;12.32;5.43;;;;;;;;;;4986684;28;20061;-62
2022/05/17 12:58:22;;;;;;;21.42;6.10;;;;;;;;;;4990513;28;20038;-61
2022/05/17 13:00:53;;;;;;;18.35;5.40;;;;;;;;;;4990782;28;20114;-61
2022/05/17 13:03:20;;;;;;;13.48;6.03;;;;;;;;;;4989709;28;20457;-61
2022/05/17 13:05:48;;;;;;;11.60;5.68;;;;;;;;;;4993194;28;20034;-61
2022/05/17 13:08:37;;;;;;;11.07;5.25;;;;;;;;;;4987313;28;20050;-61
2022/05/17 13:11:05;;;;;;;13.13;5.05;;;;;;;;;;4992013;28;20066;-61
2022/05/17 13:13:32;;;;;;;15.02;5.35;;;;;;;;;;4990954;28;20046;-62
2022/05/17 13:16:04;;;;;;;23.80;5.80;;;;;;;;;;4991281;28;20043;-62
2022/05/17 13:18:35;;;;;;;10.95;4.20;;;;;;;;;;4990435;28;20034;-62
2022/05/17 13:21:03;;;;;;;9.40;3.50;;;;;;;;;;4985974;28;20037;-62
2022/05/17 13:23:30;;;;;;;6.22;2.67;;;;;;;;;;4988272;28;20374;-61
2022/05/17 13:25:57;;;;;;;5.35;2.55;;;;;;;;;;4989039;28;20053;-61
2022/05/17 13:28:23;;;;;;;4.30;2.60;;;;;;;;;;4990314;28;20053;-61
2022/05/17 13:30:50;;;;;;;9.27;2.47;;;;;;;;;;4989283;28;20030;-62
2022/05/17 13:33:33;;;;;;;9.43;2.22;;;;;;;;;;4989475;28;20121;-61
2022/05/17 13:36:07;;;;;;;7.40;2.50;;;;;;;;;;4989401;28;20042;-61
2022/05/17 13:38:33;;;;;;;7.63;2.60;;;;;;;;;;4991621;28;20038;-61
2022/05/17 13:41:03;;;;;;;7.25;2.50;;;;;;;;;;4983779;28;20124;-61
2022/05/17 13:43:32;;;;;;;5.95;2.40;;;;;;;;;;4991549;28;20465;-61
2022/05/17 13:46:14;;;;;;;5.63;2.08;;;;;;;;;;4989699;28;20055;-61
2022/05/17 13:48:49;;;;;;;6.45;2.80;;;;;;;;;;4985480;28;20488;-61
2022/05/17 13:51:30;;;;;;;7.70;2.33;;;;;;;;;;4989120;28;20477;-62
2022/05/17 13:54:00;;;;;;;9.05;2.40;;;;;;;;;;4991818;28;20492;-61
2022/05/17 13:56:28;;;;;;;6.30;2.20;;;;;;;;;;4989639;28;20038;-61
2022/05/17 13:58:56;;;;;;;4.97;2.33;;;;;;;;;;4988173;28;20038;-61
2022/05/17 14:01:25;;;;;;;5.93;2.50;;;;;;;;;;4989391;28;20089;-61
2022/05/17 14:04:10;;;;;;;3.83;1.83;;;;;;;;;;4987098;28;20030;-61
2022/05/17 14:06:52;;;;;;;5.47;2.47;;;;;;;;;;4984472;28;20038;-61
2022/05/17 14:12:15;;;;;;;5.57;2.22;;;;;;;;;;4991194;28;20492;-62
2022/05/17 14:14:41;;;;;;;4.10;1.98;;;;;;;;;;4986990;28;20096;-62
2022/05/17 14:17:14;;;;;;;8.27;2.00;;;;;;;;;;4988059;28;20035;-62
2022/05/17 14:19:40;;;;;;;5.80;1.75;;;;;;;;;;4988330;28;20432;-62
2022/05/17 14:22:08;;;;;;;4.28;2.25;;;;;;;;;;4989084;28;20377;-62
2022/05/17 14:24:34;;;;;;;6.32;1.80;;;;;;;;;;4988083;28;20044;-61
2022/05/17 14:27:00;;;;;;;7.38;2.22;;;;;;;;;;4989107;28;20108;-61
2022/05/17 14:29:33;;;;;;;4.57;2.10;;;;;;;;;;4990242;28;20550;-61
2022/05/17 14:32:00;;;;;;;5.78;2.03;;;;;;;;;;4986531;28;20523;-61
2022/05/17 14:34:26;;;;;;;3.58;1.67;;;;;;;;;;4989189;28;20065;-61
2022/05/17 14:36:52;;;;;;;3.67;1.85;;;;;;;;;;4986531;28;20523;-62
2022/05/17 14:39:19;;;;;;;5.38;2.00;;;;;;;;;;4986615;28;20042;-61
2022/05/17 14:41:48;;;;;;;2.80;1.52;;;;;;;;;;4983760;28;20026;-61
2022/05/17 14:44:14;;;;;;;2.80;1.70;;;;;;;;;;4988289;28;20501;-61
2022/05/17 14:46:40;;;;;;;4.25;2.10;;;;;;;;;;4979875;28;20085;-61
2022/05/17 14:49:07;;;;;;;3.40;1.52;;;;;;;;;;4990285;28;20172;-61
2022/05/17 14:51:34;;;;;;;5.50;2.08;;;;;;;;;;4986065;28;20559;-61
2022/05/17 14:53:59;;;;;;;4.43;2.17;;;;;;;;;;4988395;28;20039;-61
2022/05/17 14:56:25;;;;;;;4.78;1.90;;;;;;;;;;4989146;28;20061;-62
2022/05/17 14:58:51;;;;;;;3.10;1.98;;;;;;;;;;4989305;28;20043;-61
2022/05/17 15:01:19;;;;;;;5.43;1.60;;;;;;;;;;4988795;28;20045;-62
2022/05/17 15:04:05;;;;;;;4.50;1.75;;;;;;;;;;4978927;28;20053;-61
2022/05/17 15:06:48;;;;;;;4.13;2.00;;;;;;;;;;4994137;28;20042;-62
2022/05/17 15:09:14;;;;;;;5.72;2.30;;;;;;;;;;4994163;28;20061;-62
2022/05/17 15:11:40;;;;;;;4.32;2.60;;;;;;;;;;4991695;28;20493;-61
2022/05/17 15:14:07;;;;;;;4.85;2.60;;;;;;;;;;4993228;28;20077;-61
2022/05/17 15:16:33;;;;;;;6.65;3.05;;;;;;;;;;4994760;28;20058;-61